sensor_id;sensor_type;location;lat;lon;timestamp;P1;durP1;ratioP1;P2;durP2;ratioP2
84745;SDS011;74975;51.922;6.480;2023-12-20T13:05:21;1076.20;;;996.15;;
84745;SDS011;74975;51.922;6.480;2023-12-20T13:07:46;1065.97;;;989.75;;
84745;SDS011;74975;51.922;6.480;2023-12-20T13:10:12;1074.72;;;997.47;;
84745;SDS011;74975;51.922;6.480;2023-12-20T13:12:38;1051.13;;;979.22;;
84745;SDS011;74975;51.922;6.480;2023-12-20T13:15:03;1043.15;;;974.30;;
84745;SDS011;74975;51.922;6.480;2023-12-20T13:17:30;1024.70;;;958.53;;
84745;SDS011;74975;51.922;6.480;2023-12-20T13:44:25;8.63;;;3.13;;
84745;SDS011;74975;51.922;6.480;2023-12-20T13:46:50;10.65;;;2.50;;
84745;SDS011;74975;51.922;6.480;2023-12-20T13:49:19;13.68;;;4.28;;
84745;SDS011;74975;51.922;6.480;2023-12-20T13:51:44;8.15;;;3.00;;
84745;SDS011;74975;51.922;6.480;2023-12-20T13:54:10;10.73;;;3.38;;
84745;SDS011;74975;51.922;6.480;2023-12-20T13:59:34;12.20;;;4.00;;
84745;SDS011;74975;51.922;6.480;2023-12-20T14:02:00;9.18;;;3.70;;
84745;SDS011;74975;51.922;6.480;2023-12-20T14:04:26;11.48;;;3.55;;
84745;SDS011;74975;51.922;6.480;2023-12-20T14:09:42;11.65;;;4.15;;
84745;SDS011;74975;51.922;6.480;2023-12-20T14:12:10;15.10;;;3.80;;
84745;SDS011;74975;51.922;6.480;2023-12-20T14:14:38;12.40;;;5.57;;
84745;SDS011;74975;51.922;6.480;2023-12-20T14:17:04;16.13;;;3.53;;
84745;SDS011;74975;51.922;6.480;2023-12-20T14:19:31;13.30;;;4.30;;
84745;SDS011;74975;51.922;6.480;2023-12-20T14:21:57;13.45;;;5.22;;
84745;SDS011;74975;51.922;6.480;2023-12-20T14:24:26;20.88;;;5.57;;
84745;SDS011;74975;51.922;6.480;2023-12-20T14:26:51;17.23;;;4.70;;
84745;SDS011;74975;51.922;6.480;2023-12-20T14:29:17;11.77;;;3.92;;
84745;SDS011;74975;51.922;6.480;2023-12-20T14:31:42;19.33;;;6.10;;
84745;SDS011;74975;51.922;6.480;2023-12-20T14:34:07;16.25;;;4.60;;
84745;SDS011;74975;51.922;6.480;2023-12-20T14:36:34;12.35;;;4.25;;
84745;SDS011;74975;51.922;6.480;2023-12-20T14:38:59;8.88;;;4.50;;
84745;SDS011;74975;51.922;6.480;2023-12-20T14:41:26;13.27;;;4.90;;
84745;SDS011;74975;51.922;6.480;2023-12-20T14:43:51;12.77;;;5.25;;
84745;SDS011;74975;51.922;6.480;2023-12-20T14:46:18;11.73;;;4.45;;
84745;SDS011;74975;51.922;6.480;2023-12-20T14:48:43;12.93;;;4.72;;
84745;SDS011;74975;51.922;6.480;2023-12-20T14:51:09;13.88;;;4.88;;
84745;SDS011;74975;51.922;6.480;2023-12-20T14:53:35;11.80;;;4.25;;
84745;SDS011;74975;51.922;6.480;2023-12-20T14:56:02;15.32;;;5.40;;
84745;SDS011;74975;51.922;6.480;2023-12-20T14:58:29;14.15;;;5.60;;
84745;SDS011;74975;51.922;6.480;2023-12-20T15:00:54;11.75;;;5.28;;
84745;SDS011;74975;51.922;6.480;2023-12-20T15:03:21;14.48;;;4.72;;
84745;SDS011;74975;51.922;6.480;2023-12-20T15:05:46;12.63;;;4.70;;
84745;SDS011;74975;51.922;6.480;2023-12-20T15:08:12;19.90;;;5.40;;
84745;SDS011;74975;51.922;6.480;2023-12-20T15:10:38;9.98;;;5.00;;
84745;SDS011;74975;51.922;6.480;2023-12-20T15:13:04;12.65;;;5.78;;
84745;SDS011;74975;51.922;6.480;2023-12-20T15:15:29;13.90;;;4.97;;
84745;SDS011;74975;51.922;6.480;2023-12-20T15:17:54;14.18;;;5.38;;
84745;SDS011;74975;51.922;6.480;2023-12-20T15:20:20;9.65;;;4.15;;
84745;SDS011;74975;51.922;6.480;2023-12-20T15:22:45;12.65;;;4.85;;
84745;SDS011;74975;51.922;6.480;2023-12-20T15:25:11;15.43;;;5.38;;
84745;SDS011;74975;51.922;6.480;2023-12-20T15:27:37;18.25;;;6.25;;
84745;SDS011;74975;51.922;6.480;2023-12-20T15:30:03;8.70;;;4.60;;
84745;SDS011;74975;51.922;6.480;2023-12-20T15:32:30;12.65;;;5.43;;
84745;SDS011;74975;51.922;6.480;2023-12-20T15:35:01;15.23;;;5.75;;
84745;SDS011;74975;51.922;6.480;2023-12-20T15:37:27;15.07;;;5.68;;
84745;SDS011;74975;51.922;6.480;2023-12-20T15:39:53;13.20;;;5.10;;
84745;SDS011;74975;51.922;6.480;2023-12-20T15:42:18;15.85;;;5.28;;
84745;SDS011;74975;51.922;6.480;2023-12-20T15:44:44;15.23;;;5.10;;
84745;SDS011;74975;51.922;6.480;2023-12-20T15:47:09;18.00;;;5.90;;
84745;SDS011;74975;51.922;6.480;2023-12-20T15:49:35;16.63;;;6.20;;
84745;SDS011;74975;51.922;6.480;2023-12-20T15:52:00;14.18;;;5.38;;
84745;SDS011;74975;51.922;6.480;2023-12-20T15:54:25;10.18;;;5.50;;
84745;SDS011;74975;51.922;6.480;2023-12-20T15:56:51;14.60;;;5.68;;
84745;SDS011;74975;51.922;6.480;2023-12-20T15:59:18;15.15;;;5.38;;
84745;SDS011;74975;51.922;6.480;2023-12-20T16:01:43;18.67;;;5.35;;
84745;SDS011;74975;51.922;6.480;2023-12-20T16:04:08;13.60;;;5.97;;
84745;SDS011;74975;51.922;6.480;2023-12-20T16:06:34;16.05;;;5.18;;
84745;SDS011;74975;51.922;6.480;2023-12-20T16:09:00;15.82;;;5.53;;
84745;SDS011;74975;51.922;6.480;2023-12-20T16:11:25;18.58;;;5.68;;
84745;SDS011;74975;51.922;6.480;2023-12-20T16:13:51;16.27;;;6.18;;
84745;SDS011;74975;51.922;6.480;2023-12-20T16:16:16;21.60;;;6.75;;
84745;SDS011;74975;51.922;6.480;2023-12-20T16:18:41;18.92;;;6.60;;
84745;SDS011;74975;51.922;6.480;2023-12-20T16:21:07;16.23;;;6.07;;
84745;SDS011;74975;51.922;6.480;2023-12-20T16:23:32;15.43;;;6.53;;
84745;SDS011;74975;51.922;6.480;2023-12-20T16:25:57;19.50;;;6.97;;
84745;SDS011;74975;51.922;6.480;2023-12-20T16:28:23;15.45;;;5.65;;
84745;SDS011;74975;51.922;6.480;2023-12-20T16:30:49;20.42;;;7.00;;
84745;SDS011;74975;51.922;6.480;2023-12-20T16:33:14;18.58;;;6.57;;
84745;SDS011;74975;51.922;6.480;2023-12-20T16:35:40;20.90;;;6.63;;
84745;SDS011;74975;51.922;6.480;2023-12-20T16:38:19;15.20;;;6.00;;
84745;SDS011;74975;51.922;6.480;2023-12-20T16:40:46;18.83;;;7.60;;
84745;SDS011;74975;51.922;6.480;2023-12-20T16:43:12;17.80;;;6.72;;
84745;SDS011;74975;51.922;6.480;2023-12-20T16:45:37;20.20;;;6.40;;
84745;SDS011;74975;51.922;6.480;2023-12-20T16:48:03;15.38;;;7.95;;
84745;SDS011;74975;51.922;6.480;2023-12-20T16:50:30;18.75;;;7.13;;
84745;SDS011;74975;51.922;6.480;2023-12-20T16:52:55;13.35;;;6.43;;
84745;SDS011;74975;51.922;6.480;2023-12-20T16:55:20;16.73;;;7.18;;
84745;SDS011;74975;51.922;6.480;2023-12-20T16:57:46;17.88;;;7.90;;
84745;SDS011;74975;51.922;6.480;2023-12-20T17:00:12;19.48;;;8.32;;
84745;SDS011;74975;51.922;6.480;2023-12-20T17:02:38;18.98;;;8.00;;
84745;SDS011;74975;51.922;6.480;2023-12-20T17:05:04;22.80;;;7.82;;
84745;SDS011;74975;51.922;6.480;2023-12-20T17:07:29;26.63;;;10.75;;
84745;SDS011;74975;51.922;6.480;2023-12-20T17:09:55;21.40;;;8.15;;
84745;SDS011;74975;51.922;6.480;2023-12-20T17:12:20;19.98;;;8.15;;
84745;SDS011;74975;51.922;6.480;2023-12-20T17:14:46;24.25;;;8.52;;
84745;SDS011;74975;51.922;6.480;2023-12-20T17:17:11;19.17;;;8.52;;
84745;SDS011;74975;51.922;6.480;2023-12-20T17:19:37;16.48;;;7.45;;
84745;SDS011;74975;51.922;6.480;2023-12-20T17:22:02;19.23;;;7.13;;
84745;SDS011;74975;51.922;6.480;2023-12-20T17:24:30;21.08;;;8.98;;
84745;SDS011;74975;51.922;6.480;2023-12-20T17:26:56;16.83;;;8.57;;
84745;SDS011;74975;51.922;6.480;2023-12-20T17:29:21;18.48;;;8.60;;
84745;SDS011;74975;51.922;6.480;2023-12-20T17:31:47;23.27;;;10.32;;
84745;SDS011;74975;51.922;6.480;2023-12-20T17:34:12;30.85;;;10.90;;
84745;SDS011;74975;51.922;6.480;2023-12-20T17:36:39;20.23;;;8.77;;
84745;SDS011;74975;51.922;6.480;2023-12-20T17:41:31;17.13;;;8.83;;
84745;SDS011;74975;51.922;6.480;2023-12-20T17:43:57;18.90;;;10.25;;
84745;SDS011;74975;51.922;6.480;2023-12-20T17:46:23;24.80;;;9.43;;
84745;SDS011;74975;51.922;6.480;2023-12-20T17:48:49;22.10;;;10.77;;
84745;SDS011;74975;51.922;6.480;2023-12-20T17:51:14;22.30;;;10.05;;
84745;SDS011;74975;51.922;6.480;2023-12-20T17:53:39;16.75;;;9.13;;
84745;SDS011;74975;51.922;6.480;2023-12-20T17:56:05;21.80;;;9.18;;
84745;SDS011;74975;51.922;6.480;2023-12-20T18:01:29;19.98;;;7.82;;
84745;SDS011;74975;51.922;6.480;2023-12-20T18:03:54;27.35;;;9.95;;
84745;SDS011;74975;51.922;6.480;2023-12-20T18:06:20;24.17;;;9.77;;
84745;SDS011;74975;51.922;6.480;2023-12-20T18:08:45;25.17;;;11.02;;
84745;SDS011;74975;51.922;6.480;2023-12-20T18:11:11;32.33;;;11.35;;
84745;SDS011;74975;51.922;6.480;2023-12-20T18:13:36;23.80;;;10.27;;
84745;SDS011;74975;51.922;6.480;2023-12-20T18:16:01;23.45;;;10.85;;
84745;SDS011;74975;51.922;6.480;2023-12-20T18:18:27;27.70;;;11.65;;
84745;SDS011;74975;51.922;6.480;2023-12-20T18:20:53;22.73;;;12.30;;
84745;SDS011;74975;51.922;6.480;2023-12-20T18:23:19;23.55;;;10.30;;
84745;SDS011;74975;51.922;6.480;2023-12-20T18:25:44;27.17;;;12.02;;
84745;SDS011;74975;51.922;6.480;2023-12-20T18:28:10;25.70;;;12.65;;
84745;SDS011;74975;51.922;6.480;2023-12-20T18:30:38;30.65;;;12.90;;
84745;SDS011;74975;51.922;6.480;2023-12-20T18:33:03;24.42;;;11.57;;
84745;SDS011;74975;51.922;6.480;2023-12-20T18:35:29;23.15;;;11.07;;
84745;SDS011;74975;51.922;6.480;2023-12-20T18:37:55;27.67;;;11.82;;
84745;SDS011;74975;51.922;6.480;2023-12-20T18:40:22;23.42;;;11.10;;
84745;SDS011;74975;51.922;6.480;2023-12-20T18:42:48;27.02;;;11.75;;
84745;SDS011;74975;51.922;6.480;2023-12-20T18:45:13;23.45;;;11.85;;
84745;SDS011;74975;51.922;6.480;2023-12-20T18:47:38;27.25;;;11.50;;
84745;SDS011;74975;51.922;6.480;2023-12-20T18:50:04;24.77;;;9.75;;
84745;SDS011;74975;51.922;6.480;2023-12-20T18:52:33;22.42;;;11.40;;
84745;SDS011;74975;51.922;6.480;2023-12-20T18:54:58;26.98;;;12.27;;
84745;SDS011;74975;51.922;6.480;2023-12-20T18:57:24;24.02;;;9.68;;
84745;SDS011;74975;51.922;6.480;2023-12-20T18:59:49;23.67;;;10.98;;
84745;SDS011;74975;51.922;6.480;2023-12-20T19:02:14;23.30;;;12.52;;
84745;SDS011;74975;51.922;6.480;2023-12-20T19:04:40;23.60;;;12.25;;
84745;SDS011;74975;51.922;6.480;2023-12-20T19:07:05;22.67;;;9.88;;
84745;SDS011;74975;51.922;6.480;2023-12-20T19:09:30;21.95;;;11.13;;
84745;SDS011;74975;51.922;6.480;2023-12-20T19:11:56;21.17;;;10.55;;
84745;SDS011;74975;51.922;6.480;2023-12-20T19:14:21;26.08;;;11.20;;
84745;SDS011;74975;51.922;6.480;2023-12-20T19:16:47;22.40;;;12.07;;
84745;SDS011;74975;51.922;6.480;2023-12-20T19:19:14;18.17;;;10.15;;
84745;SDS011;74975;51.922;6.480;2023-12-20T19:21:39;22.38;;;11.93;;
84745;SDS011;74975;51.922;6.480;2023-12-20T19:24:06;23.55;;;9.85;;
84745;SDS011;74975;51.922;6.480;2023-12-20T19:26:32;25.33;;;11.40;;
84745;SDS011;74975;51.922;6.480;2023-12-20T19:28:57;24.52;;;12.38;;
84745;SDS011;74975;51.922;6.480;2023-12-20T19:31:23;27.88;;;11.55;;
84745;SDS011;74975;51.922;6.480;2023-12-20T19:33:48;24.65;;;10.95;;
84745;SDS011;74975;51.922;6.480;2023-12-20T19:36:18;20.50;;;11.80;;
84745;SDS011;74975;51.922;6.480;2023-12-20T19:38:43;21.80;;;10.65;;
84745;SDS011;74975;51.922;6.480;2023-12-20T19:41:09;19.17;;;11.70;;
84745;SDS011;74975;51.922;6.480;2023-12-20T19:43:36;28.75;;;11.10;;
84745;SDS011;74975;51.922;6.480;2023-12-20T19:46:01;23.25;;;10.40;;
84745;SDS011;74975;51.922;6.480;2023-12-20T19:48:26;18.58;;;9.90;;
84745;SDS011;74975;51.922;6.480;2023-12-20T19:50:52;18.33;;;9.35;;
84745;SDS011;74975;51.922;6.480;2023-12-20T19:53:17;27.38;;;10.98;;
84745;SDS011;74975;51.922;6.480;2023-12-20T19:55:43;17.92;;;10.27;;
84745;SDS011;74975;51.922;6.480;2023-12-20T19:58:09;21.73;;;10.65;;
84745;SDS011;74975;51.922;6.480;2023-12-20T20:00:34;26.55;;;12.70;;
84745;SDS011;74975;51.922;6.480;2023-12-20T20:03:00;19.42;;;11.52;;
84745;SDS011;74975;51.922;6.480;2023-12-20T20:05:25;24.92;;;11.10;;
84745;SDS011;74975;51.922;6.480;2023-12-20T20:07:51;19.13;;;10.27;;
84745;SDS011;74975;51.922;6.480;2023-12-20T20:10:16;19.73;;;10.48;;
84745;SDS011;74975;51.922;6.480;2023-12-20T20:12:42;16.73;;;10.65;;
84745;SDS011;74975;51.922;6.480;2023-12-20T20:15:07;22.90;;;11.05;;
84745;SDS011;74975;51.922;6.480;2023-12-20T20:17:33;19.33;;;9.80;;
84745;SDS011;74975;51.922;6.480;2023-12-20T20:19:58;16.35;;;8.05;;
84745;SDS011;74975;51.922;6.480;2023-12-20T20:22:26;17.70;;;9.30;;
84745;SDS011;74975;51.922;6.480;2023-12-20T20:24:52;20.58;;;10.10;;
84745;SDS011;74975;51.922;6.480;2023-12-20T20:27:18;21.85;;;9.80;;
84745;SDS011;74975;51.922;6.480;2023-12-20T20:29:46;19.60;;;10.30;;
84745;SDS011;74975;51.922;6.480;2023-12-20T20:32:12;23.20;;;11.15;;
84745;SDS011;74975;51.922;6.480;2023-12-20T20:34:37;20.13;;;10.10;;
84745;SDS011;74975;51.922;6.480;2023-12-20T20:37:02;21.35;;;11.48;;
84745;SDS011;74975;51.922;6.480;2023-12-20T20:39:28;20.83;;;9.77;;
84745;SDS011;74975;51.922;6.480;2023-12-20T20:41:53;14.52;;;8.73;;
84745;SDS011;74975;51.922;6.480;2023-12-20T20:44:18;20.98;;;9.52;;
84745;SDS011;74975;51.922;6.480;2023-12-20T20:46:44;19.42;;;7.85;;
84745;SDS011;74975;51.922;6.480;2023-12-20T20:49:09;12.32;;;7.28;;
84745;SDS011;74975;51.922;6.480;2023-12-20T20:51:35;18.35;;;9.05;;
84745;SDS011;74975;51.922;6.480;2023-12-20T20:54:00;13.10;;;7.35;;
84745;SDS011;74975;51.922;6.480;2023-12-20T20:56:25;12.68;;;6.72;;
84745;SDS011;74975;51.922;6.480;2023-12-20T20:58:51;13.65;;;7.43;;
84745;SDS011;74975;51.922;6.480;2023-12-20T21:01:19;12.77;;;7.25;;
84745;SDS011;74975;51.922;6.480;2023-12-20T21:03:44;14.65;;;6.47;;
84745;SDS011;74975;51.922;6.480;2023-12-20T21:06:10;18.05;;;7.50;;
84745;SDS011;74975;51.922;6.480;2023-12-20T21:08:36;17.67;;;6.13;;
84745;SDS011;74975;51.922;6.480;2023-12-20T21:11:01;17.20;;;6.40;;
84745;SDS011;74975;51.922;6.480;2023-12-20T21:13:27;10.82;;;6.78;;
84745;SDS011;74975;51.922;6.480;2023-12-20T21:15:53;12.63;;;6.43;;
84745;SDS011;74975;51.922;6.480;2023-12-20T21:18:19;12.07;;;7.68;;
84745;SDS011;74975;51.922;6.480;2023-12-20T21:20:45;11.82;;;6.32;;
84745;SDS011;74975;51.922;6.480;2023-12-20T21:23:12;15.02;;;7.55;;
84745;SDS011;74975;51.922;6.480;2023-12-20T21:25:38;13.80;;;4.80;;
84745;SDS011;74975;51.922;6.480;2023-12-20T21:28:03;16.13;;;6.18;;
84745;SDS011;74975;51.922;6.480;2023-12-20T21:30:29;9.30;;;5.25;;
84745;SDS011;74975;51.922;6.480;2023-12-20T21:33:02;12.18;;;6.43;;
84745;SDS011;74975;51.922;6.480;2023-12-20T21:35:28;11.63;;;6.70;;
84745;SDS011;74975;51.922;6.480;2023-12-20T21:37:53;16.52;;;6.60;;
84745;SDS011;74975;51.922;6.480;2023-12-20T21:40:18;8.65;;;4.68;;
84745;SDS011;74975;51.922;6.480;2023-12-20T21:42:44;8.07;;;5.65;;
84745;SDS011;74975;51.922;6.480;2023-12-20T21:45:10;8.38;;;5.22;;
84745;SDS011;74975;51.922;6.480;2023-12-20T21:47:36;10.45;;;5.22;;
84745;SDS011;74975;51.922;6.480;2023-12-20T21:50:02;13.73;;;6.60;;
84745;SDS011;74975;51.922;6.480;2023-12-20T21:52:27;8.73;;;5.22;;
84745;SDS011;74975;51.922;6.480;2023-12-20T21:54:53;13.32;;;6.03;;
84745;SDS011;74975;51.922;6.480;2023-12-20T21:57:18;13.48;;;7.25;;
84745;SDS011;74975;51.922;6.480;2023-12-20T21:59:44;9.40;;;5.82;;
84745;SDS011;74975;51.922;6.480;2023-12-20T22:02:09;12.03;;;5.47;;
84745;SDS011;74975;51.922;6.480;2023-12-20T22:04:34;11.52;;;7.03;;
84745;SDS011;74975;51.922;6.480;2023-12-20T22:07:00;11.73;;;5.88;;
84745;SDS011;74975;51.922;6.480;2023-12-20T22:09:26;11.00;;;7.05;;
84745;SDS011;74975;51.922;6.480;2023-12-20T22:11:51;16.77;;;7.55;;
84745;SDS011;74975;51.922;6.480;2023-12-20T22:14:16;12.77;;;7.10;;
84745;SDS011;74975;51.922;6.480;2023-12-20T22:16:42;12.15;;;5.38;;
84745;SDS011;74975;51.922;6.480;2023-12-20T22:19:07;12.02;;;6.78;;
84745;SDS011;74975;51.922;6.480;2023-12-20T22:21:33;16.27;;;7.95;;
84745;SDS011;74975;51.922;6.480;2023-12-20T22:23:59;8.57;;;4.82;;
84745;SDS011;74975;51.922;6.480;2023-12-20T22:26:24;12.23;;;6.50;;
84745;SDS011;74975;51.922;6.480;2023-12-20T22:28:50;12.80;;;7.18;;
84745;SDS011;74975;51.922;6.480;2023-12-20T22:31:15;13.27;;;6.25;;
84745;SDS011;74975;51.922;6.480;2023-12-20T22:33:41;10.48;;;6.00;;
84745;SDS011;74975;51.922;6.480;2023-12-20T22:36:06;11.55;;;6.68;;
84745;SDS011;74975;51.922;6.480;2023-12-20T22:38:32;12.40;;;7.20;;
84745;SDS011;74975;51.922;6.480;2023-12-20T22:40:58;11.18;;;6.85;;
84745;SDS011;74975;51.922;6.480;2023-12-20T22:43:24;13.98;;;6.40;;
84745;SDS011;74975;51.922;6.480;2023-12-20T22:45:50;15.20;;;7.75;;
84745;SDS011;74975;51.922;6.480;2023-12-20T22:48:16;11.68;;;6.20;;
84745;SDS011;74975;51.922;6.480;2023-12-20T22:50:42;12.50;;;6.60;;
84745;SDS011;74975;51.922;6.480;2023-12-20T22:53:07;11.38;;;5.40;;
84745;SDS011;74975;51.922;6.480;2023-12-20T22:55:33;13.23;;;7.43;;
84745;SDS011;74975;51.922;6.480;2023-12-20T22:57:58;12.15;;;7.53;;
84745;SDS011;74975;51.922;6.480;2023-12-20T23:00:24;12.82;;;5.43;;
84745;SDS011;74975;51.922;6.480;2023-12-20T23:02:50;15.85;;;6.90;;
84745;SDS011;74975;51.922;6.480;2023-12-20T23:05:16;15.45;;;7.63;;
84745;SDS011;74975;51.922;6.480;2023-12-20T23:07:41;14.88;;;7.00;;
84745;SDS011;74975;51.922;6.480;2023-12-20T23:10:07;15.95;;;8.48;;
84745;SDS011;74975;51.922;6.480;2023-12-20T23:12:33;12.55;;;7.38;;
84745;SDS011;74975;51.922;6.480;2023-12-20T23:14:58;14.95;;;7.30;;
84745;SDS011;74975;51.922;6.480;2023-12-20T23:17:24;11.05;;;6.13;;
84745;SDS011;74975;51.922;6.480;2023-12-20T23:19:49;11.48;;;6.57;;
84745;SDS011;74975;51.922;6.480;2023-12-20T23:22:15;14.00;;;7.82;;
84745;SDS011;74975;51.922;6.480;2023-12-20T23:24:41;17.70;;;7.80;;
84745;SDS011;74975;51.922;6.480;2023-12-20T23:27:06;12.23;;;6.90;;
84745;SDS011;74975;51.922;6.480;2023-12-20T23:29:32;16.75;;;7.82;;
84745;SDS011;74975;51.922;6.480;2023-12-20T23:31:57;14.82;;;7.70;;
84745;SDS011;74975;51.922;6.480;2023-12-20T23:34:23;15.07;;;7.75;;
84745;SDS011;74975;51.922;6.480;2023-12-20T23:36:48;12.32;;;7.18;;
84745;SDS011;74975;51.922;6.480;2023-12-20T23:39:13;11.50;;;7.05;;
84745;SDS011;74975;51.922;6.480;2023-12-20T23:41:39;12.88;;;5.38;;
84745;SDS011;74975;51.922;6.480;2023-12-20T23:44:04;12.95;;;6.90;;
84745;SDS011;74975;51.922;6.480;2023-12-20T23:46:30;8.60;;;5.93;;
84745;SDS011;74975;51.922;6.480;2023-12-20T23:48:55;12.07;;;6.40;;
84745;SDS011;74975;51.922;6.480;2023-12-20T23:51:20;17.25;;;7.93;;
84745;SDS011;74975;51.922;6.480;2023-12-20T23:53:46;9.70;;;6.38;;
84745;SDS011;74975;51.922;6.480;2023-12-20T23:56:11;12.18;;;6.53;;
84745;SDS011;74975;51.922;6.480;2023-12-20T23:58:36;9.48;;;5.47;;
